Time;durP1;ratioP1;P1;durP2;ratioP2;P2;SDS_P1;SDS_P2;PMS_P1;PMS_P2;Temp;Humidity;BMP_temperature;BMP_pressure;BME280_temperature;BME280_humidity;BME280_pressure;Samples;Min_cycle;Max_cycle;Signal;HPM_P1;HPM_P2
2023/09/03 00:06:31;;;;;;;4.60;2.33;;;;;;;12.30;100.00;96735.41;7390629;19;20417;-90
2023/09/03 00:37:03;;;;;;;6.17;2.90;;;;;;;12.02;100.00;96718.47;987568;19;1972336;31
2023/09/03 00:39:34;;;;;;;4.60;2.53;;;;;;;10.71;100.00;96577.56;7466562;19;20120;-96
2023/09/03 00:42:05;;;;;;;3.80;3.33;;;;;;;9.85;100.00;96414.91;7466125;19;20372;-96
2023/09/03 00:44:33;;;;;;;4.23;2.67;;;;;;;9.93;100.00;96398.25;7468396;19;20398;-96
2023/09/03 00:47:08;;;;;;;6.50;2.37;;;;;;;10.36;100.00;96444.78;7464703;19;20474;-96
2023/09/03 01:33:36;;;;;;;;;;;;;;;;;;;;;
2023/09/03 01:40:55;;;;;;;;;;;;;;;;;;;;;
2023/09/03 04:40:01;;;;;;;3.33;2.60;;;;;;;9.96;100.00;96740.22;5140638;19;15275288;-96
2023/09/03 04:42:41;;;;;;;8.07;3.30;;;;;;;10.41;100.00;96784.81;7436475;19;20120;-96
2023/09/03 04:45:23;;;;;;;4.10;2.97;;;;;;;8.73;100.00;96508.28;7434729;19;20357;-96
2023/09/03 04:47:55;;;;;;;3.47;2.60;;;;;;;8.77;100.00;96488.13;7434722;19;20420;-96
2023/09/03 04:50:32;;;;;;;2.73;2.40;;;;;;;10.04;100.00;96666.25;7433071;19;20372;-96
2023/09/03 04:53:06;;;;;;;7.80;2.03;;;;;;;9.71;100.00;96612.38;7435206;19;20393;-96
2023/09/03 04:58:37;;;;;;;2.80;2.03;;;;;;;10.08;100.00;96667.16;7430724;19;20385;-95
2023/09/03 05:01:16;;;;;;;3.10;2.10;;;;;;;8.81;100.00;96486.44;7433596;19;20385;-95
2023/09/03 05:16:00;;;;;;;4.20;2.53;;;;;;;10.30;100.00;96773.81;7430655;19;20416;-95
2023/09/03 05:18:42;;;;;;;3.17;2.97;;;;;;;9.69;100.00;96676.06;7429736;19;20369;-95
2023/09/03 05:21:17;;;;;;;2.53;1.90;;;;;;;8.87;100.00;96524.75;7427865;19;20385;-94
2023/09/03 05:23:50;;;;;;;2.90;2.47;;;;;;;9.83;100.00;96649.50;7430506;19;20511;-95
2023/09/03 05:26:37;;;;;;;3.10;2.57;;;;;;;10.15;100.00;96692.31;7425507;19;20408;-95
2023/09/03 05:29:14;;;;;;;2.60;2.40;;;;;;;10.24;100.00;96662.19;7429932;19;20392;-95
2023/09/03 05:32:00;;;;;;;7.13;2.90;;;;;;;10.49;100.00;96739.84;7431791;19;20380;-95
2023/09/03 05:34:36;;;;;;;5.23;2.50;;;;;;;11.00;100.00;96830.75;7430052;19;20425;-94
2023/09/03 05:37:13;;;;;;;3.30;2.63;;;;;;;10.25;100.00;96689.38;7430241;19;20411;-95
2023/09/03 05:39:58;;;;;;;3.47;2.53;;;;;;;10.03;100.00;96629.56;7431558;19;20440;-94
2023/09/03 05:42:42;;;;;;;7.40;3.30;;;;;;;10.29;100.00;96655.97;7430438;19;20492;-94
2023/09/03 05:45:17;;;;;;;3.53;3.17;;;;;;;10.47;100.00;96691.03;7428949;19;20412;-94
2023/09/03 05:48:00;;;;;;;4.70;2.80;;;;;;;9.83;100.00;96591.38;7431622;19;20417;-95
2023/09/03 05:50:45;;;;;;;6.10;2.80;;;;;;;9.31;100.00;96517.56;7431589;19;20387;-95
2023/09/03 05:53:19;;;;;;;4.67;2.87;;;;;;;10.36;100.00;96680.03;7429687;19;20397;-95
2023/09/03 05:56:10;;;;;;;4.77;3.03;;;;;;;11.54;100.00;96849.53;7430727;19;20439;-95
2023/09/03 05:58:46;;;;;;;8.13;3.20;;;;;;;11.55;100.00;96843.13;7430972;19;20380;-94
2023/09/03 06:01:32;;;;;;;5.33;2.80;;;;;;;9.91;100.00;96561.56;7427994;19;20384;-94
2023/09/03 06:04:15;;;;;;;5.30;2.70;;;;;;;9.92;100.00;96541.19;7430930;19;20373;-95
2023/09/03 06:07:00;;;;;;;3.23;3.00;;;;;;;10.28;100.00;96596.25;7427953;19;20436;-95
2023/09/03 06:09:48;;;;;;;3.87;3.30;;;;;;;10.34;100.00;96606.34;7426621;19;20385;-95
2023/09/03 06:12:31;;;;;;;5.47;3.20;;;;;;;10.06;100.00;96554.97;7431978;19;20381;-95
2023/09/03 06:15:14;;;;;;;4.60;3.50;;;;;;;11.29;100.00;96729.41;7431013;19;20408;-95
2023/09/03 06:17:57;;;;;;;3.90;3.60;;;;;;;12.60;100.00;96867.88;7429862;19;20395;-95
2023/09/03 06:20:28;;;;;;;5.63;3.10;;;;;;;10.49;100.00;96560.09;7432451;19;20429;-95
2023/09/03 06:23:18;;;;;;;3.57;3.27;;;;;;;10.64;100.00;96566.69;7427567;19;20386;-94
2023/09/03 06:25:58;;;;;;;6.37;3.70;;;;;;;12.68;100.00;96886.38;7429698;19;20436;-95
2023/09/03 06:28:34;;;;;;;3.30;3.00;;;;;;;11.75;100.00;96748.91;7426214;19;20476;-95
2023/09/03 06:31:17;;;;;;;2.87;2.67;;;;;;;10.70;100.00;96609.59;7426564;19;20388;-95
2023/09/03 06:34:02;;;;;;;3.77;2.87;;;;;;;11.84;100.00;96784.09;7429036;19;20381;-95
2023/09/03 06:36:54;;;;;;;6.27;3.40;;;;;;;10.56;100.00;96596.63;7425053;19;20447;-95
2023/09/03 06:39:38;;;;;;;4.33;3.93;;;;;;;11.80;100.00;96781.31;7427256;19;20392;-95
2023/09/03 06:42:18;;;;;;;3.97;3.57;;;;;;;10.47;100.00;96574.72;7427101;19;20381;-95
2023/09/03 06:45:07;;;;;;;4.10;3.67;;;;;;;10.63;100.00;96587.06;7425884;19;20404;-94
2023/09/03 06:47:55;;;;;;;2.93;2.73;;;;;;;10.30;100.00;96557.09;7435259;19;20407;-95
2023/09/03 06:50:38;;;;;;;3.40;3.10;;;;;;;10.41;100.00;96549.53;7436351;19;20399;-95
2023/09/03 06:53:20;;;;;;;3.50;3.20;;;;;;;10.76;100.00;96600.38;7435706;19;20401;-95
2023/09/03 06:56:00;;;;;;;3.93;3.63;;;;;;;12.46;100.00;96779.84;7434933;19;20424;-95
2023/09/03 08:15:24;;;;;;;4.17;3.77;;;;;;;14.39;100.00;96806.72;7433115;19;20431;-95
2023/09/03 08:18:28;;;;;;;4.60;4.00;;;;;;;14.55;100.00;96806.78;7433537;19;20412;-94
2023/09/03 08:21:47;;;;;;;4.27;3.97;;;;;;;15.99;100.00;97003.84;7432451;19;20375;-96
2023/09/03 08:28:15;;;;;;;4.27;3.97;;;;;;;16.92;100.00;97012.84;7432002;19;20381;-95
2023/09/03 08:31:23;;;;;;;5.00;3.47;;;;;;;17.01;100.00;97016.09;7432878;19;20544;-95
2023/09/03 08:34:21;;;;;;;3.33;3.10;;;;;;;14.88;100.00;96739.19;7426888;19;20400;-95
2023/09/03 08:37:26;;;;;;;3.07;2.80;;;;;;;15.46;100.00;96820.13;7428714;19;20428;-95
2023/09/03 08:40:41;;;;;;;3.13;2.93;;;;;;;16.12;100.00;96891.34;7430405;19;20388;-96
2023/09/03 08:43:46;;;;;;;;;;;;;;;;;;;;;
2023/09/03 15:48:36;;;;;;;4.77;4.27;;;;;;;20.22;100.00;97077.91;7418224;19;20451;-96
2023/09/03 15:51:26;;;;;;;4.20;3.90;;;;;;;19.25;100.00;96932.44;7439094;19;20404;-96
2023/09/03 15:54:24;;;;;;;4.60;4.20;;;;;;;20.64;100.00;97080.19;7433459;19;20389;-96
2023/09/03 15:57:34;;;;;;;;;;;;;;;;;;;;;
2023/09/03 17:47:23;;;;;;;5.60;5.10;;;;;;;16.34;100.00;96947.88;7416906;19;20452;-96
2023/09/03 17:50:25;;;;;;;10.40;5.90;;;;;;;17.53;100.00;97113.00;7431037;19;20392;-96
2023/09/03 17:59:18;;;;;;;5.53;4.93;;;;;;;14.51;100.00;96800.63;7428386;19;20448;-96
2023/09/03 18:05:13;;;;;;;6.50;5.90;;;;;;;14.54;100.00;96778.63;7427815;19;20392;-96
2023/09/03 18:50:34;;;;;;;5.80;5.30;;;;;;;14.60;100.00;96962.81;7370291;19;20436;-96
2023/09/03 18:53:18;;;;;;;5.50;5.07;;;;;;;13.88;100.00;96856.94;7439077;19;20369;-96
2023/09/03 18:56:04;;;;;;;5.30;4.90;;;;;;;14.46;100.00;96963.19;7437144;19;20424;-96
2023/09/03 18:58:43;;;;;;;4.80;4.03;;;;;;;15.14;100.00;97107.06;7435245;19;20396;-96
2023/09/03 19:35:36;;;;;;;5.37;4.90;;;;;;;14.88;100.00;97183.88;7309576;19;20432;-96
2023/09/03 21:47:30;;;;;;;5.13;4.63;;;;;;;11.74;100.00;96988.41;7387447;19;20596;-96
2023/09/03 21:50:04;;;;;;;6.83;5.10;;;;;;;9.99;100.00;96752.78;7433181;19;20384;-96
2023/09/03 21:52:39;;;;;;;6.00;5.40;;;;;;;10.15;100.00;96798.00;7435276;19;20368;-96
2023/09/03 21:55:22;;;;;;;6.00;5.23;;;;;;;9.52;100.00;96786.16;7433224;19;20400;-96
2023/09/03 22:10:15;;;;;;;6.20;5.50;;;;;;;12.69;100.00;97115.34;7433897;19;20412;-96
2023/09/03 22:12:46;;;;;;;4.87;4.43;;;;;;;11.10;100.00;96856.09;7432509;19;20371;-96
2023/09/03 22:15:43;;;;;;;5.37;4.97;;;;;;;10.78;100.00;96855.53;7430834;19;20440;-96
2023/09/03 22:19:04;;;;;;;5.70;5.10;;;;;;;10.09;100.00;96834.38;7439684;19;20360;-96
2023/09/03 22:22:00;;;;;;;7.30;4.57;;;;;;;10.14;100.00;96902.91;7440149;19;20400;-96
2023/09/03 22:30:43;;;;;;;8.80;4.73;;;;;;;9.84;100.00;96857.03;7358923;19;20443;-96
2023/09/03 22:33:14;;;;;;;4.70;4.23;;;;;;;9.61;100.00;96808.03;7441993;19;20383;-96
2023/09/03 22:36:05;;;;;;;6.40;4.17;;;;;;;9.99;100.00;96846.03;7439209;19;20452;-96
2023/09/03 22:38:45;;;;;;;4.60;4.27;;;;;;;10.23;100.00;96831.63;7437131;19;20360;-96
2023/09/03 22:41:18;;;;;;;6.80;4.20;;;;;;;12.46;100.00;97172.41;7440325;19;20363;-96
2023/09/03 23:17:14;;;;;;;6.50;4.13;;;;;;;11.02;100.00;97185.78;7427365;19;20439;-96
2023/09/03 23:20:06;;;;;;;4.67;4.17;;;;;;;9.75;100.00;96948.69;7436742;19;20349;-95
2023/09/03 23:56:54;;;;;;;5.53;5.03;;;;;;;9.09;100.00;96890.47;7432800;19;20433;-95
2023/09/03 23:59:39;;;;;;;5.13;4.43;;;;;;;10.86;100.00;97121.16;7439184;19;20364;-96
